Time;durP1;ratioP1;P1;durP2;ratioP2;P2;SDS_P1;SDS_P2;PMS_P1;PMS_P2;Temp;Humidity;BMP_temperature;BMP_pressure;BME280_temperature;BME280_humidity;BME280_pressure;Samples;Min_cycle;Max_cycle;Signal;HPM_P1;HPM_P2
2024/03/11 00:02:08;;;;;;;43.85;29.70;;;;;;;9.30;86.38;99136.91;5039267;28;20095;-81
2024/03/11 00:04:35;;;;;;;47.00;29.85;;;;;;;9.19;86.72;99137.19;5040227;28;20088;-82
2024/03/11 00:07:04;;;;;;;41.47;29.67;;;;;;;9.17;87.17;99149.75;5045096;28;20050;-83
2024/03/11 00:09:32;;;;;;;44.30;29.27;;;;;;;9.19;86.60;99145.13;5043955;28;20060;-81
2024/03/11 00:12:01;;;;;;;43.17;29.60;;;;;;;9.17;87.14;99147.09;5040982;28;20046;-80
2024/03/11 00:14:29;;;;;;;46.10;31.65;;;;;;;9.14;88.41;99147.44;5038945;28;20060;-78
2024/03/11 00:16:58;;;;;;;46.50;31.35;;;;;;;9.03;89.10;99149.38;5048125;28;20113;-82
2024/03/11 00:19:26;;;;;;;46.38;30.63;;;;;;;9.01;88.99;99147.88;5037047;28;20075;-81
2024/03/11 00:21:54;;;;;;;45.25;30.80;;;;;;;9.04;89.01;99148.38;5041369;28;20049;-81
2024/03/11 00:24:21;;;;;;;46.40;30.90;;;;;;;8.98;88.28;99154.31;5035647;28;20060;-83
2024/03/11 00:26:49;;;;;;;50.75;31.73;;;;;;;8.78;90.01;99156.38;5044240;28;20092;-80
2024/03/11 00:29:15;;;;;;;53.38;33.38;;;;;;;8.78;90.87;99156.38;5028320;28;20499;-82
2024/03/11 00:31:42;;;;;;;53.03;32.92;;;;;;;8.95;90.12;99157.28;5040564;28;20203;-82
2024/03/11 00:34:10;;;;;;;52.47;33.58;;;;;;;8.63;91.82;99159.78;5041070;28;20053;-83
2024/03/11 00:36:37;;;;;;;51.63;34.95;;;;;;;8.53;93.07;99150.19;5038845;28;20054;-82
2024/03/11 00:39:04;;;;;;;53.92;35.53;;;;;;;8.68;93.12;99162.78;5033876;28;20049;-81
2024/03/11 00:41:32;;;;;;;56.92;35.10;;;;;;;8.58;93.54;99153.19;5041622;28;20096;-83
2024/03/11 00:43:59;;;;;;;59.22;36.40;;;;;;;8.65;92.51;99161.28;5033855;28;20076;-81
2024/03/11 00:46:26;;;;;;;58.45;38.63;;;;;;;8.66;92.33;99164.72;5035182;28;20059;-82
2024/03/11 00:48:54;;;;;;;59.15;37.65;;;;;;;8.64;92.04;99164.06;5046219;28;20049;-80
2024/03/11 00:51:22;;;;;;;63.30;40.45;;;;;;;8.70;91.94;99168.69;5045731;28;20049;-82
2024/03/11 00:53:49;;;;;;;61.65;39.42;;;;;;;8.65;92.49;99165.72;5045010;28;20063;-80
2024/03/11 00:56:15;;;;;;;65.13;40.72;;;;;;;8.63;92.67;99175.63;5046483;28;20108;-82
2024/03/11 00:58:42;;;;;;;65.95;40.53;;;;;;;8.64;92.59;99164.91;5040156;28;20081;-83
2024/03/11 01:01:10;;;;;;;67.60;42.67;;;;;;;8.65;92.46;99169.19;5041846;28;20085;-82
2024/03/11 01:03:37;;;;;;;69.80;42.60;;;;;;;8.66;92.48;99175.28;5041674;28;20087;-83
2024/03/11 01:06:05;;;;;;;67.57;43.78;;;;;;;8.61;93.68;99176.56;5042176;28;20084;-81
2024/03/11 01:08:33;;;;;;;68.75;44.05;;;;;;;8.63;93.72;99173.78;5046874;28;20489;-82
2024/03/11 01:11:00;;;;;;;70.75;43.45;;;;;;;8.69;93.08;99170.53;5036876;28;20081;-82
2024/03/11 01:13:27;;;;;;;71.13;44.13;;;;;;;8.65;93.33;99171.81;5043041;28;20081;-80
2024/03/11 01:15:53;;;;;;;67.13;44.53;;;;;;;8.63;93.06;99172.97;5045374;28;20077;-81
2024/03/11 01:18:20;;;;;;;71.53;45.85;;;;;;;8.68;93.38;99181.25;5042154;28;20042;-82
2024/03/11 01:20:48;;;;;;;68.30;45.17;;;;;;;8.69;93.21;99175.78;5047844;28;20071;-81
2024/03/11 01:23:16;;;;;;;67.60;44.22;;;;;;;8.77;91.97;99178.47;5042901;28;20067;-81
2024/03/11 01:25:45;;;;;;;67.50;44.58;;;;;;;8.69;92.18;99181.06;5047913;28;20057;-83
2024/03/11 01:28:12;;;;;;;65.68;43.13;;;;;;;8.69;91.92;99183.69;5045603;28;20068;-81
2024/03/11 01:30:39;;;;;;;68.40;43.22;;;;;;;8.56;93.02;99181.50;5042897;28;20072;-81
2024/03/11 01:33:06;;;;;;;67.55;44.22;;;;;;;8.52;93.24;99181.97;5045494;28;20045;-81
2024/03/11 01:35:34;;;;;;;68.25;44.95;;;;;;;8.51;93.11;99178.50;5045265;28;20074;-83
2024/03/11 01:38:01;;;;;;;66.15;43.88;;;;;;;8.40;93.66;99177.97;5043595;28;20045;-80
2024/03/11 01:40:28;;;;;;;70.00;46.03;;;;;;;8.40;94.53;99191.16;5036122;28;20088;-83
2024/03/11 01:42:56;;;;;;;75.28;47.28;;;;;;;8.42;94.43;99184.72;5045124;28;20050;-81
2024/03/11 01:45:24;;;;;;;75.82;47.42;;;;;;;8.35;94.95;99178.41;5035421;28;20128;-81
2024/03/11 01:47:52;;;;;;;74.03;47.80;;;;;;;8.37;95.54;99175.63;5043874;28;20104;-81
2024/03/11 01:52:57;;;;;;;72.65;47.58;;;;;;;8.21;95.47;99161.31;5040868;28;20519;-80
2024/03/11 02:03:02;;;;;;;81.68;51.63;;;;;;;8.25;95.98;99167.94;4958662;29;20055;-82
2024/03/11 02:05:29;;;;;;;81.90;51.33;;;;;;;8.24;96.11;99176.00;5082593;22;20048;-78
2024/03/11 02:07:59;;;;;;;83.32;53.55;;;;;;;8.20;96.67;99174.66;5091875;28;20079;-78
2024/03/11 02:10:26;;;;;;;83.28;52.58;;;;;;;8.20;96.23;99177.31;5089231;28;20105;-78
2024/03/11 02:12:53;;;;;;;83.68;53.30;;;;;;;8.19;95.73;99178.28;5090148;28;20059;-78
2024/03/11 02:15:21;;;;;;;91.45;57.25;;;;;;;8.24;96.01;99176.84;5087831;28;20049;-78
2024/03/11 02:17:48;;;;;;;87.63;54.55;;;;;;;8.30;95.68;99181.50;5086639;28;20471;-79
2024/03/11 02:20:16;;;;;;;86.05;54.53;;;;;;;8.28;95.47;99177.34;5089553;28;20067;-80
2024/03/11 02:22:46;;;;;;;93.72;56.22;;;;;;;8.27;95.51;99181.81;5093092;28;20079;-80
2024/03/11 02:25:18;;;;;;;83.43;52.78;;;;;;;8.21;96.81;99178.94;5087506;28;20443;-79
2024/03/11 02:27:46;;;;;;;87.10;55.63;;;;;;;8.36;95.58;99185.31;5089292;28;20181;-80
2024/03/11 02:30:15;;;;;;;84.47;53.63;;;;;;;8.40;95.18;99189.34;5088717;28;20792;-79
2024/03/11 02:32:42;;;;;;;86.97;55.55;;;;;;;8.39;95.57;99185.03;5089835;28;20056;-78
2024/03/11 02:35:10;;;;;;;87.00;55.20;;;;;;;8.36;95.51;99187.97;5088237;28;20048;-79
2024/03/11 02:37:38;;;;;;;84.95;54.28;;;;;;;8.38;95.25;99191.28;5081284;28;20101;-78
2024/03/11 02:40:07;;;;;;;83.80;53.92;;;;;;;8.32;95.63;99186.59;5085831;28;20447;-78
2024/03/11 02:42:36;;;;;;;83.13;55.15;;;;;;;8.35;95.60;99184.50;5091094;28;20047;-78
2024/03/11 02:45:05;;;;;;;81.53;53.55;;;;;;;8.34;95.51;99182.00;5086949;28;20139;-78
2024/03/11 02:47:32;;;;;;;86.47;55.47;;;;;;;8.28;96.26;99190.53;5085915;28;20069;-78
2024/03/11 02:49:59;;;;;;;85.82;53.78;;;;;;;8.29;95.80;99182.47;5087303;28;20407;-78
2024/03/11 02:52:26;;;;;;;78.80;53.15;;;;;;;8.33;95.38;99190.88;5081499;28;20060;-76
2024/03/11 02:54:53;;;;;;;82.40;55.13;;;;;;;8.24;96.60;99191.81;5084215;28;20059;-78
2024/03/11 02:57:21;;;;;;;81.32;52.78;;;;;;;8.27;96.00;99187.06;5081830;28;20064;-79
2024/03/11 02:59:50;;;;;;;77.95;52.47;;;;;;;8.24;96.58;99183.91;5091272;28;20047;-79
2024/03/11 03:02:18;;;;;;;78.38;52.55;;;;;;;8.22;96.27;99183.25;5083320;28;20048;-79
2024/03/11 03:04:45;;;;;;;87.07;55.58;;;;;;;8.31;96.07;99182.31;5086750;28;20067;-79
2024/03/11 03:07:15;;;;;;;84.85;55.17;;;;;;;8.29;96.37;99184.28;5088376;28;20078;-79
2024/03/11 03:09:47;;;;;;;85.80;53.80;;;;;;;8.16;96.84;99174.13;5083318;28;20052;-78
2024/03/11 03:12:14;;;;;;;82.47;52.70;;;;;;;8.24;96.95;99187.38;5088214;28;20076;-78
2024/03/11 03:14:41;;;;;;;78.10;50.45;;;;;;;8.26;96.75;99185.44;5079212;28;20126;-77
2024/03/11 03:17:09;;;;;;;77.80;51.38;;;;;;;8.22;96.59;99181.44;5088100;28;20268;-78
2024/03/11 03:19:36;;;;;;;80.43;51.85;;;;;;;8.28;97.01;99186.09;5086538;28;20135;-78
2024/03/11 03:22:02;;;;;;;85.50;53.72;;;;;;;8.17;97.82;99185.50;5093385;28;20139;-78
2024/03/11 03:24:29;;;;;;;81.45;52.38;;;;;;;8.26;97.21;99179.31;5088195;28;20044;-78
2024/03/11 03:26:56;;;;;;;80.35;52.17;;;;;;;8.28;97.14;99187.91;5093331;28;20071;-79
2024/03/11 03:29:24;;;;;;;75.97;49.53;;;;;;;8.31;97.07;99191.06;5085600;28;20041;-80
2024/03/11 03:31:51;;;;;;;76.55;50.55;;;;;;;8.32;96.79;99184.81;5095863;28;20062;-78
2024/03/11 03:34:19;;;;;;;74.38;48.70;;;;;;;8.31;97.03;99177.06;5090990;28;20098;-79
2024/03/11 03:36:46;;;;;;;71.45;48.03;;;;;;;8.41;96.74;99182.25;5089475;28;20496;-79
2024/03/11 03:39:12;;;;;;;75.13;49.78;;;;;;;8.38;96.95;99188.66;5087579;28;20040;-77
2024/03/11 03:41:39;;;;;;;72.35;48.90;;;;;;;8.36;96.93;99185.31;5096372;28;20134;-79
2024/03/11 03:44:06;;;;;;;71.65;48.92;;;;;;;8.34;96.56;99184.63;5094409;28;20201;-79
2024/03/11 03:46:32;;;;;;;73.10;47.70;;;;;;;8.24;97.23;99179.47;5095643;28;20059;-79
2024/03/11 03:48:59;;;;;;;73.88;48.15;;;;;;;8.27;96.90;99186.25;5099523;28;20071;-78
2024/03/11 03:51:27;;;;;;;72.35;47.92;;;;;;;8.31;97.11;99187.59;5091420;28;20079;-80
2024/03/11 03:53:56;;;;;;;73.70;48.95;;;;;;;8.30;97.42;99180.66;5099471;28;20059;-79
2024/03/11 03:56:36;;;;;;;73.50;49.00;;;;;;;8.32;97.14;99183.97;5098320;28;20067;-79
2024/03/11 03:59:03;;;;;;;76.35;50.83;;;;;;;8.24;97.24;99182.09;5099240;28;20070;-80
2024/03/11 04:01:30;;;;;;;77.47;50.00;;;;;;;8.22;97.22;99180.63;5103508;28;20055;-80
2024/03/11 04:03:57;;;;;;;76.03;50.42;;;;;;;8.19;96.75;99184.38;5108295;28;20054;-78
2024/03/11 04:06:23;;;;;;;83.18;52.20;;;;;;;8.20;97.21;99183.41;5099861;28;20051;-78
2024/03/11 04:08:52;;;;;;;82.50;54.13;;;;;;;8.17;97.10;99181.09;5086446;28;20055;-77
2024/03/11 04:11:18;;;;;;;83.15;53.90;;;;;;;8.22;96.62;99178.00;5097111;28;20182;-78
2024/03/11 04:13:49;;;;;;;88.22;55.38;;;;;;;8.16;96.74;99178.59;5093129;22;20237;-79
2024/03/11 04:16:17;;;;;;;87.07;55.92;;;;;;;8.06;97.70;99179.50;5020365;28;20061;-78
2024/03/11 04:18:48;;;;;;;89.82;55.58;;;;;;;8.09;97.70;99189.75;5021081;28;20084;-79
2024/03/11 04:21:16;;;;;;;88.70;55.78;;;;;;;8.11;97.33;99195.69;5021998;28;20096;-79
2024/03/11 04:23:44;;;;;;;86.78;55.17;;;;;;;8.02;98.18;99191.34;5017368;28;20089;-79
2024/03/11 04:26:14;;;;;;;89.25;56.80;;;;;;;8.06;97.54;99197.97;5001094;28;20409;-79
2024/03/11 04:28:43;;;;;;;90.35;56.60;;;;;;;8.01;98.01;99192.31;5068431;22;20049;-81
2024/03/11 04:31:10;;;;;;;92.45;57.97;;;;;;;7.96;98.33;99199.88;5068709;28;20103;-82
2024/03/11 04:33:36;;;;;;;94.07;57.35;;;;;;;8.02;97.70;99196.59;5068662;28;20048;-80
2024/03/11 04:36:03;;;;;;;90.57;56.85;;;;;;;8.07;97.17;99196.97;5068585;28;20049;-80
2024/03/11 04:38:30;;;;;;;94.80;59.25;;;;;;;8.01;97.73;99213.41;5067177;28;20068;-82
2024/03/11 04:40:57;;;;;;;91.95;58.90;;;;;;;8.01;98.33;99210.75;5068996;28;20106;-82
2024/03/11 04:43:26;;;;;;;90.38;58.35;;;;;;;8.09;97.26;99213.47;5065161;28;20080;-82
2024/03/11 04:45:53;;;;;;;95.05;59.35;;;;;;;8.07;97.25;99212.78;5069208;28;20075;-81
2024/03/11 04:48:21;;;;;;;93.72;58.47;;;;;;;7.99;97.85;99220.63;5069076;28;20048;-82
2024/03/11 04:50:47;;;;;;;87.35;56.65;;;;;;;8.01;98.13;99221.31;5063057;28;20080;-82
2024/03/11 04:53:16;;;;;;;89.88;59.35;;;;;;;8.09;97.28;99223.19;5067885;28;20080;-80
2024/03/11 04:55:43;;;;;;;91.85;58.72;;;;;;;8.02;98.20;99217.69;5068137;28;20123;-81
2024/03/11 04:58:10;;;;;;;95.53;59.17;;;;;;;7.99;98.06;99212.75;5067667;28;20105;-81
2024/03/11 05:00:38;;;;;;;91.78;58.97;;;;;;;7.94;98.04;99222.88;5068242;28;20049;-80
2024/03/11 05:03:05;;;;;;;95.05;58.75;;;;;;;7.90;98.45;99216.25;5064740;28;20288;-81
2024/03/11 05:05:35;;;;;;;93.18;60.25;;;;;;;7.88;98.16;99212.13;5068042;28;20465;-81
2024/03/11 05:08:03;;;;;;;97.43;61.03;;;;;;;7.92;98.81;99221.41;5067777;28;20044;-82
2024/03/11 05:10:30;;;;;;;96.55;61.15;;;;;;;7.95;98.40;99219.28;5064280;28;20133;-83
2024/03/11 05:12:57;;;;;;;97.70;61.78;;;;;;;7.96;97.98;99220.13;5065514;28;20053;-80
2024/03/11 05:15:23;;;;;;;103.05;63.05;;;;;;;7.93;97.72;99220.41;5061049;28;20075;-81
2024/03/11 05:17:51;;;;;;;100.45;63.40;;;;;;;7.91;98.47;99217.94;5068991;28;20079;-80
2024/03/11 05:20:18;;;;;;;102.68;65.07;;;;;;;7.88;97.93;99223.50;5069718;28;20041;-82
2024/03/11 05:22:46;;;;;;;104.13;64.43;;;;;;;7.76;98.15;99216.78;5069457;28;20037;-83
2024/03/11 05:25:14;;;;;;;100.57;63.78;;;;;;;7.80;98.49;99218.97;5069776;28;20388;-83
2024/03/11 05:27:41;;;;;;;110.75;68.75;;;;;;;7.74;97.54;99208.22;5068207;28;20391;-83
2024/03/11 05:30:14;;;;;;;107.90;65.93;;;;;;;7.69;98.16;99218.41;5063822;28;20052;-83
2024/03/11 05:32:57;;;;;;;113.82;68.40;;;;;;;7.66;97.96;99222.16;5066795;28;20045;-83
2024/03/11 05:35:24;;;;;;;114.07;69.70;;;;;;;7.68;97.20;99216.72;5050423;28;20097;-81
2024/03/11 05:37:54;;;;;;;113.50;69.50;;;;;;;7.69;97.81;99223.66;5064229;28;20051;-83
2024/03/11 05:40:21;;;;;;;115.93;71.28;;;;;;;7.68;98.40;99228.09;5066080;28;20052;-81
2024/03/11 05:42:48;;;;;;;114.43;69.95;;;;;;;7.65;97.84;99231.03;5065862;28;20533;-80
2024/03/11 05:45:15;;;;;;;109.90;68.60;;;;;;;7.57;97.73;99234.41;5065603;28;20117;-80
2024/03/11 05:47:42;;;;;;;114.05;70.78;;;;;;;7.57;98.42;99242.28;5066095;28;20126;-81
2024/03/11 05:50:12;;;;;;;115.05;71.20;;;;;;;7.53;98.07;99232.22;5065287;28;20109;-79
2024/03/11 05:52:44;;;;;;;115.35;69.50;;;;;;;7.69;97.83;99247.34;5065445;28;20055;-80
2024/03/11 05:55:12;;;;;;;121.45;74.18;;;;;;;7.59;97.92;99237.72;5065225;28;20052;-80
2024/03/11 05:57:40;;;;;;;116.90;71.85;;;;;;;7.67;97.69;99247.50;5062465;28;20079;-81
2024/03/11 06:00:09;;;;;;;123.78;73.53;;;;;;;7.66;97.39;99248.47;5056479;28;20052;-81
2024/03/11 06:02:36;;;;;;;113.90;73.32;;;;;;;7.63;98.09;99240.03;5063065;28;20056;-82
2024/03/11 06:05:04;;;;;;;119.70;73.13;;;;;;;7.63;98.21;99251.41;5064133;28;20049;-83
2024/03/11 06:07:37;;;;;;;119.40;73.07;;;;;;;7.56;98.50;99248.53;5062781;28;20055;-80
2024/03/11 06:10:07;;;;;;;120.32;73.70;;;;;;;7.52;98.87;99255.09;5062981;28;20041;-82
2024/03/11 06:12:34;;;;;;;126.05;76.32;;;;;;;7.49;98.43;99252.75;5063395;28;20053;-81
2024/03/11 06:15:01;;;;;;;118.10;74.78;;;;;;;7.49;98.43;99254.53;5063986;28;20079;-82
2024/03/11 06:17:29;;;;;;;118.20;74.32;;;;;;;7.53;99.11;99261.16;5062819;28;20075;-80
2024/03/11 06:19:57;;;;;;;121.80;75.05;;;;;;;7.54;98.26;99261.00;5063928;28;20045;-82
2024/03/11 06:22:24;;;;;;;120.57;72.53;;;;;;;7.66;97.86;99256.38;5064289;28;20049;-81
2024/03/11 06:24:58;;;;;;;126.40;74.60;;;;;;;7.60;98.73;99264.88;5060328;28;20049;-82
2024/03/11 06:27:25;;;;;;;122.82;75.47;;;;;;;7.57;98.81;99259.91;5063596;28;20048;-80
2024/03/11 06:29:53;;;;;;;124.60;75.60;;;;;;;7.55;99.01;99265.31;5061713;28;20047;-80
2024/03/11 06:32:20;;;;;;;123.32;74.57;;;;;;;7.63;98.91;99267.19;5062338;28;20049;-80
2024/03/11 06:34:47;;;;;;;122.15;73.80;;;;;;;7.60;98.81;99275.41;5060489;28;20053;-81
2024/03/11 06:37:13;;;;;;;128.20;74.75;;;;;;;7.65;98.78;99281.06;5061997;28;20489;-80
2024/03/11 06:39:40;;;;;;;130.18;76.22;;;;;;;7.64;98.73;99279.41;5059946;28;20088;-80
2024/03/11 06:42:10;;;;;;;127.70;76.90;;;;;;;7.53;99.16;99288.31;5062298;28;20219;-81
2024/03/11 06:44:37;;;;;;;132.73;77.68;;;;;;;7.58;98.78;99290.50;5059904;28;20055;-79
2024/03/11 06:47:04;;;;;;;126.32;75.85;;;;;;;7.52;99.56;99286.66;5061443;28;20055;-83
2024/03/11 06:49:32;;;;;;;127.50;73.72;;;;;;;7.53;99.61;99293.59;5063153;28;20056;-81
2024/03/11 06:51:59;;;;;;;127.30;78.18;;;;;;;7.62;98.56;99297.13;5062373;28;20045;-82
2024/03/11 06:54:26;;;;;;;129.35;75.20;;;;;;;7.56;99.55;99287.22;5062316;28;20049;-82
2024/03/11 06:56:52;;;;;;;125.85;74.72;;;;;;;7.69;98.41;99297.38;5063215;28;20060;-82
2024/03/11 06:59:20;;;;;;;124.30;74.28;;;;;;;7.58;98.95;99295.78;5063139;28;20077;-82
2024/03/11 07:01:47;;;;;;;124.85;73.43;;;;;;;7.64;99.72;99300.47;5063849;28;20136;-81
2024/03/11 07:04:14;;;;;;;118.40;71.95;;;;;;;7.58;99.11;99290.50;5063427;28;20057;-80
2024/03/11 07:06:41;;;;;;;127.10;74.95;;;;;;;7.69;98.98;99306.13;5064138;28;20061;-82
2024/03/11 07:09:09;;;;;;;114.13;68.00;;;;;;;7.72;99.09;99292.63;5064657;28;20055;-81
2024/03/11 07:11:37;;;;;;;145.63;81.28;;;;;;;7.73;98.73;99304.84;5056681;28;20162;-80
2024/03/11 07:14:04;;;;;;;120.70;70.22;;;;;;;7.77;98.68;99306.19;5052349;28;20292;-82
2024/03/11 07:16:32;;;;;;;110.57;64.05;;;;;;;7.60;99.38;99305.19;5061882;28;20132;-79
2024/03/11 07:18:59;;;;;;;108.43;64.00;;;;;;;7.73;99.67;99307.47;5059094;28;20045;-79
2024/03/11 07:21:27;;;;;;;107.15;64.90;;;;;;;7.67;99.22;99304.59;5061362;28;20140;-78
2024/03/11 07:23:55;;;;;;;93.47;56.85;;;;;;;7.75;99.47;99313.41;5057861;28;20098;-78
2024/03/11 07:26:22;;;;;;;69.90;41.60;;;;;;;7.77;98.54;99313.28;5061101;28;20076;-79
2024/03/11 07:28:48;;;;;;;58.92;35.92;;;;;;;7.79;98.80;99317.41;5060922;28;20063;-78
2024/03/11 07:31:17;;;;;;;40.08;23.42;;;;;;;7.76;97.87;99314.22;5062255;28;20478;-80
2024/03/11 07:33:47;;;;;;;25.27;16.25;;;;;;;7.77;97.89;99313.28;5059936;28;20060;-79
2024/03/11 07:36:15;;;;;;;20.35;12.98;;;;;;;7.82;98.16;99321.56;5059735;28;20067;-79
2024/03/11 07:38:42;;;;;;;15.45;9.90;;;;;;;7.79;97.52;99319.22;5064488;28;20235;-79
2024/03/11 07:41:09;;;;;;;12.82;8.40;;;;;;;7.86;97.12;99322.91;5065707;28;20101;-79
2024/03/11 07:43:36;;;;;;;11.75;8.43;;;;;;;7.85;97.77;99326.50;5066304;28;20143;-79
2024/03/11 07:46:04;;;;;;;14.02;9.40;;;;;;;7.91;97.25;99331.19;5059218;28;20065;-79
2024/03/11 07:48:31;;;;;;;11.25;8.15;;;;;;;7.87;96.10;99332.47;5061364;28;20118;-79
2024/03/11 07:50:59;;;;;;;16.40;8.00;;;;;;;7.75;96.94;99331.84;5062301;28;20098;-79
2024/03/11 07:53:26;;;;;;;11.48;7.53;;;;;;;7.81;96.74;99343.59;5061871;28;20053;-77
2024/03/11 07:55:52;;;;;;;10.40;7.18;;;;;;;7.77;97.12;99342.25;5061575;28;20073;-78
2024/03/11 07:58:19;;;;;;;10.60;7.63;;;;;;;7.84;96.98;99351.19;5058142;28;20135;-79
2024/03/11 08:00:46;;;;;;;11.15;7.72;;;;;;;7.88;96.72;99349.09;5061596;28;20049;-79
2024/03/11 08:03:14;;;;;;;11.38;8.02;;;;;;;7.86;96.88;99357.16;5061702;28;20132;-78
2024/03/11 08:05:41;;;;;;;12.95;8.80;;;;;;;7.84;96.37;99359.91;5059063;28;20076;-79
2024/03/11 08:08:09;;;;;;;12.85;7.97;;;;;;;7.78;96.14;99354.44;5059933;28;20461;-78
2024/03/11 08:10:35;;;;;;;10.85;7.72;;;;;;;7.67;96.04;99365.16;5060412;28;20127;-78
2024/03/11 08:13:02;;;;;;;10.93;6.93;;;;;;;7.64;96.14;99368.09;5060905;28;20480;-79
2024/03/11 08:15:29;;;;;;;9.93;6.70;;;;;;;7.57;96.50;99366.03;5060278;28;20049;-78
2024/03/11 08:17:55;;;;;;;9.98;6.93;;;;;;;7.51;96.76;99356.09;5061462;28;20123;-78
2024/03/11 08:20:23;;;;;;;12.40;6.75;;;;;;;7.64;96.38;99371.56;5055880;28;20045;-79
2024/03/11 08:22:52;;;;;;;11.57;7.68;;;;;;;7.64;96.11;99370.72;5061735;28;20278;-79
2024/03/11 08:25:23;;;;;;;12.15;7.28;;;;;;;7.78;95.10;99364.97;5062415;28;20082;-79
2024/03/11 08:27:51;;;;;;;10.65;6.90;;;;;;;7.77;94.61;99366.78;5062287;28;20048;-79
2024/03/11 08:30:19;;;;;;;10.40;6.18;;;;;;;7.75;94.33;99373.16;5061349;28;20412;-79
2024/03/11 08:32:47;;;;;;;10.02;5.90;;;;;;;7.67;94.96;99379.16;5062935;28;20128;-79
2024/03/11 08:35:14;;;;;;;9.88;5.70;;;;;;;7.73;94.62;99377.75;5062646;28;20396;-79
2024/03/11 08:37:41;;;;;;;7.75;5.63;;;;;;;7.76;92.71;99380.06;5061883;28;20072;-79
2024/03/11 08:40:10;;;;;;;8.40;5.13;;;;;;;7.69;93.95;99381.66;5062299;28;20048;-79
2024/03/11 08:42:39;;;;;;;6.10;4.13;;;;;;;7.73;93.37;99388.28;5055952;28;20049;-78
2024/03/11 08:45:07;;;;;;;10.02;5.28;;;;;;;7.68;93.69;99386.09;5061848;28;20079;-77
2024/03/11 08:47:35;;;;;;;7.15;4.75;;;;;;;7.69;93.02;99394.81;5061107;28;20170;-77
2024/03/11 08:50:02;;;;;;;7.97;4.82;;;;;;;7.69;93.67;99397.44;5061945;28;20052;-79
2024/03/11 08:52:29;;;;;;;9.05;5.20;;;;;;;7.68;94.31;99398.41;5060538;28;20099;-78
2024/03/11 08:54:56;;;;;;;7.68;5.10;;;;;;;7.63;94.27;99403.28;5061655;28;20045;-78
2024/03/11 08:57:23;;;;;;;8.55;5.68;;;;;;;7.65;95.34;99407.44;5057927;28;20045;-78
2024/03/11 08:59:51;;;;;;;7.47;5.28;;;;;;;7.64;95.00;99407.59;5061375;28;20076;-78
2024/03/11 09:02:18;;;;;;;7.68;5.40;;;;;;;7.67;94.79;99410.75;5062328;28;20102;-78
2024/03/11 09:04:46;;;;;;;7.85;5.35;;;;;;;7.71;94.20;99401.56;5060956;28;20076;-78
2024/03/11 09:07:13;;;;;;;13.27;6.03;;;;;;;7.76;95.29;99416.94;5060066;28;20083;-77
2024/03/11 09:09:40;;;;;;;9.23;5.63;;;;;;;7.77;94.01;99413.34;5062724;28;20076;-78
2024/03/11 09:12:09;;;;;;;9.88;5.63;;;;;;;7.74;94.89;99422.34;5066130;28;20056;-78
2024/03/11 09:14:36;;;;;;;7.65;5.30;;;;;;;7.73;93.94;99427.78;5063101;28;20072;-78
2024/03/11 09:17:04;;;;;;;8.07;5.28;;;;;;;7.74;95.41;99437.34;5058140;28;20083;-78
2024/03/11 09:19:32;;;;;;;10.48;5.63;;;;;;;7.79;94.51;99438.56;5060316;28;20128;-78
2024/03/11 09:21:59;;;;;;;9.30;5.47;;;;;;;7.69;95.42;99439.59;5061761;28;20275;-78
2024/03/11 09:24:26;;;;;;;8.68;5.60;;;;;;;7.71;94.32;99442.88;5061183;28;20083;-78
2024/03/11 09:26:53;;;;;;;7.72;5.30;;;;;;;7.75;95.08;99444.25;5060126;28;20411;-78
2024/03/11 09:29:21;;;;;;;7.40;5.22;;;;;;;7.77;94.63;99453.69;5061075;28;20451;-78
2024/03/11 09:31:49;;;;;;;7.28;5.10;;;;;;;7.75;94.91;99457.41;5059698;28;20114;-78
2024/03/11 09:34:18;;;;;;;7.78;5.18;;;;;;;7.71;95.16;99456.88;5063435;28;20056;-78
2024/03/11 09:36:44;;;;;;;8.43;5.45;;;;;;;7.73;95.29;99468.13;5060550;28;20053;-78
2024/03/11 09:39:12;;;;;;;7.38;4.80;;;;;;;7.71;94.83;99463.94;5059529;28;20048;-78
2024/03/11 09:41:41;;;;;;;9.13;5.93;;;;;;;7.75;94.04;99478.50;5059932;28;20553;-78
2024/03/11 09:44:15;;;;;;;10.90;7.03;;;;;;;7.76;94.57;99473.06;5050159;28;20053;-78
2024/03/11 09:46:43;;;;;;;10.93;6.38;;;;;;;7.77;95.49;99476.56;5059157;28;20055;-78
2024/03/11 09:49:11;;;;;;;8.90;6.10;;;;;;;7.78;95.80;99488.75;5058959;28;20045;-78
2024/03/11 09:51:40;;;;;;;9.38;6.28;;;;;;;7.82;95.12;99476.94;5056154;28;20095;-78
2024/03/11 09:54:13;;;;;;;8.15;5.55;;;;;;;7.79;95.41;99493.84;5057720;28;20106;-78
2024/03/11 09:56:40;;;;;;;8.35;5.90;;;;;;;7.79;95.42;99488.59;5057220;28;20055;-78
2024/03/11 09:59:09;;;;;;;10.63;6.95;;;;;;;7.80;95.82;99498.16;5056952;28;20113;-78
2024/03/11 10:01:42;;;;;;;8.90;5.72;;;;;;;7.85;95.39;99497.72;5056629;28;20451;-78
2024/03/11 10:04:10;;;;;;;8.48;6.05;;;;;;;7.88;95.32;99492.16;5057120;28;20107;-78
2024/03/11 10:06:39;;;;;;;10.88;6.25;;;;;;;7.82;95.69;99500.66;5060106;28;20049;-78
2024/03/11 10:09:13;;;;;;;9.70;6.28;;;;;;;7.79;95.67;99508.84;5057600;28;20049;-78
2024/03/11 10:12:00;;;;;;;9.40;5.70;;;;;;;7.82;95.90;99505.91;5057291;28;20049;-78
2024/03/11 10:14:27;;;;;;;9.05;5.75;;;;;;;7.87;95.19;99516.84;5058254;28;20087;-78
2024/03/11 10:16:53;;;;;;;8.23;5.47;;;;;;;7.73;96.90;99512.06;5057959;28;20087;-78
2024/03/11 10:19:21;;;;;;;7.75;5.43;;;;;;;7.80;95.45;99515.75;5058949;28;20088;-78
2024/03/11 10:21:48;;;;;;;8.25;5.57;;;;;;;7.79;96.69;99514.09;5058724;28;20099;-78
2024/03/11 10:24:16;;;;;;;6.65;4.80;;;;;;;7.89;94.77;99521.97;5057278;28;20061;-79
2024/03/11 10:26:43;;;;;;;7.05;4.70;;;;;;;7.81;95.27;99523.53;5058371;28;20053;-78
2024/03/11 10:29:30;;;;;;;6.03;4.60;;;;;;;7.77;94.99;99523.97;5090067;22;20057;-81
2024/03/11 10:32:36;;;;;;;7.20;4.30;;;;;;;7.80;95.35;99523.66;5039426;28;20084;-82
2024/03/11 10:35:20;;;;;;;5.00;3.53;;;;;;;7.78;95.21;99529.06;5054960;28;20094;-81
2024/03/11 10:37:51;;;;;;;5.80;3.95;;;;;;;7.84;94.27;99527.66;5057391;28;20080;-82
2024/03/11 10:40:34;;;;;;;4.80;3.60;;;;;;;7.78;95.45;99529.06;5050299;28;20458;-82
2024/03/11 10:43:23;;;;;;;5.10;3.40;;;;;;;7.77;95.26;99539.75;5039583;28;20053;-82
2024/03/11 10:45:50;;;;;;;3.92;3.08;;;;;;;7.77;94.89;99537.13;5043576;28;20053;-82
2024/03/11 10:48:17;;;;;;;3.85;3.08;;;;;;;7.77;95.88;99539.75;5056053;28;20049;-80
2024/03/11 10:50:45;;;;;;;4.70;3.22;;;;;;;7.84;94.89;99543.47;5042686;28;20144;-81
2024/03/11 10:53:22;;;;;;;5.90;3.38;;;;;;;7.79;95.21;99543.91;5036158;28;20129;-81
2024/03/11 10:55:57;;;;;;;5.13;3.70;;;;;;;7.86;95.24;99557.34;5038563;28;20049;-82
2024/03/11 10:58:28;;;;;;;5.10;3.75;;;;;;;7.88;94.84;99549.28;5041152;28;20114;-82
2024/03/11 11:00:57;;;;;;;4.40;3.45;;;;;;;7.85;95.04;99553.03;5047881;28;20087;-82
2024/03/11 11:03:26;;;;;;;8.32;3.92;;;;;;;7.81;95.37;99565.69;5048295;28;20186;-80
2024/03/11 11:06:00;;;;;;;5.40;3.78;;;;;;;7.82;96.36;99567.31;5041119;28;20049;-82
2024/03/11 11:08:30;;;;;;;4.97;3.85;;;;;;;7.92;94.98;99571.72;5021133;28;20136;-82
2024/03/11 11:11:00;;;;;;;4.18;3.50;;;;;;;7.95;94.70;99571.47;5053360;28;20123;-82
2024/03/11 11:13:31;;;;;;;6.10;3.70;;;;;;;7.90;95.39;99574.50;5023993;28;20052;-83
2024/03/11 11:16:03;;;;;;;5.00;3.70;;;;;;;7.92;95.19;99577.00;5056181;28;20059;-81
2024/03/11 11:18:33;;;;;;;5.45;3.90;;;;;;;8.05;94.80;99578.34;5020132;28;20058;-81
2024/03/11 11:21:01;;;;;;;4.55;3.58;;;;;;;8.03;94.84;99582.91;5036088;28;20049;-82
2024/03/11 11:23:34;;;;;;;5.20;3.53;;;;;;;7.95;95.40;99582.81;5060669;28;20491;-82
2024/03/11 11:26:03;;;;;;;5.82;3.80;;;;;;;8.06;94.59;99589.72;5060156;28;20060;-82
2024/03/11 11:28:37;;;;;;;5.10;3.70;;;;;;;8.00;95.23;99585.84;5040635;28;20050;-82
2024/03/11 11:31:13;;;;;;;5.60;3.95;;;;;;;8.05;95.39;99580.97;5039945;28;20411;-82
2024/03/11 11:33:56;;;;;;;6.03;3.83;;;;;;;8.05;93.91;99588.88;5048261;28;20104;-82
2024/03/11 11:36:56;;;;;;;4.03;3.35;;;;;;;8.06;93.11;99592.34;5039539;28;20424;-81
2024/03/11 11:39:35;;;;;;;5.20;3.17;;;;;;;8.03;94.17;99601.34;5033270;28;20059;-81
2024/03/11 11:42:18;;;;;;;4.10;3.10;;;;;;;8.05;94.09;99604.69;5040232;28;20049;-81
2024/03/11 11:44:49;;;;;;;;;;;;;;;8.05;94.31;99609.97;5043118;28;20127;-81
2024/03/11 11:47:21;;;;;;;3.78;2.90;;;;;;;8.05;93.83;99609.97;5043121;28;19972;-81